createdAt,value
2023-03-08T00:00:27.693Z,93462.50
2023-03-08T00:02:56.668Z,93468.41
2023-03-08T00:05:23.598Z,93459.72
2023-03-08T00:07:53.099Z,93457.03
2023-03-08T00:10:20.549Z,93463.88
2023-03-08T00:12:47.317Z,93473.59
2023-03-08T00:15:14.265Z,93465.06
2023-03-08T00:17:41.115Z,93474.03
2023-03-08T00:20:13.067Z,93492.00
2023-03-08T00:22:41.855Z,93479.22
2023-03-08T00:25:10.233Z,93488.78
2023-03-08T00:27:38.150Z,93489.63
2023-03-08T00:30:06.306Z,93487.34
2023-03-08T00:32:33.356Z,93481.84
2023-03-08T00:35:00.402Z,93483.88
2023-03-08T00:37:27.111Z,93483.25
2023-03-08T00:39:54.972Z,93478.97
2023-03-08T00:42:22.957Z,93488.34
2023-03-08T00:44:50.199Z,93480.28
2023-03-08T00:47:17.012Z,93482.59
2023-03-08T00:49:44.735Z,93462.44
2023-03-08T00:52:11.757Z,93488.31
2023-03-08T00:54:38.838Z,93479.81
2023-03-08T00:57:06.025Z,93485.47
2023-03-08T00:59:32.904Z,93477.84
2023-03-08T01:02:00.866Z,93499.03
2023-03-08T01:04:27.649Z,93490.88
2023-03-08T01:06:55.241Z,93499.16
2023-03-08T01:09:21.991Z,93492.38
2023-03-08T01:11:48.698Z,93482.59
2023-03-08T01:14:15.448Z,93479.34
2023-03-08T01:16:42.728Z,93470.84
2023-03-08T01:19:11.326Z,93464.34
2023-03-08T01:21:38.243Z,93465.94
2023-03-08T01:24:05.710Z,93461.91
2023-03-08T01:26:32.484Z,93450.69
2023-03-08T01:28:59.545Z,93446.72
2023-03-08T01:31:30.095Z,93442.34
2023-03-08T01:33:58.579Z,93448.06
2023-03-08T01:36:28.121Z,93444.41
2023-03-08T01:38:55.957Z,93435.69
2023-03-08T01:41:26.522Z,93445.13
2023-03-08T01:43:54.963Z,93442.63
2023-03-08T01:46:29.995Z,93430.47
2023-03-08T01:49:13.306Z,93444.56
2023-03-08T01:51:47.372Z,93452.03
2023-03-08T01:54:35.085Z,93440.97
2023-03-08T01:57:20.138Z,93454.09
2023-03-08T01:59:49.095Z,93440.84
2023-03-08T02:02:20.050Z,93468.34
2023-03-08T02:04:46.826Z,93449.91
2023-03-08T02:07:14.251Z,93441.34
2023-03-08T02:09:42.586Z,93446.00
2023-03-08T02:12:13.101Z,93444.91
2023-03-08T02:14:42.916Z,93436.78
2023-03-08T02:17:12.020Z,93447.06
2023-03-08T02:20:00.099Z,93434.00
2023-03-08T02:22:27.550Z,93441.50
2023-03-08T02:24:54.273Z,93434.69
2023-03-08T02:27:24.904Z,93437.41
2023-03-08T02:29:52.258Z,93442.75
2023-03-08T02:32:19.184Z,93427.00
2023-03-08T02:34:45.988Z,93428.69
2023-03-08T02:37:12.774Z,93427.09
2023-03-08T02:39:39.773Z,93414.78
2023-03-08T02:42:06.906Z,93419.63
2023-03-08T02:44:35.213Z,93396.06
2023-03-08T02:47:01.948Z,93397.13
2023-03-08T02:49:28.682Z,93393.84
2023-03-08T02:51:57.614Z,93398.50
2023-03-08T02:54:24.345Z,93402.41
2023-03-08T02:56:51.329Z,93407.69
2023-03-08T02:59:18.156Z,93420.94
2023-03-08T03:01:45.368Z,93399.66
2023-03-08T03:04:12.520Z,93404.06
2023-03-08T03:06:39.352Z,93411.44
2023-03-08T03:09:11.413Z,93407.84
2023-03-08T03:11:40.434Z,93412.47
2023-03-08T03:14:07.366Z,93416.44
2023-03-08T03:16:41.726Z,93405.84
2023-03-08T03:19:10.646Z,93417.19
2023-03-08T03:21:39.410Z,93428.97
2023-03-08T03:24:06.947Z,93424.38
2023-03-08T03:26:54.302Z,93419.41
2023-03-08T03:29:23.120Z,93416.31
2023-03-08T03:31:55.513Z,93428.41
2023-03-08T03:34:22.951Z,93429.91
2023-03-08T03:36:50.392Z,93428.63
2023-03-08T03:39:17.333Z,93438.84
2023-03-08T03:41:44.785Z,93422.00
2023-03-08T03:44:14.069Z,93413.25
2023-03-08T03:46:43.616Z,93421.25
2023-03-08T03:49:12.230Z,93407.84
2023-03-08T03:51:42.076Z,93402.72
2023-03-08T03:54:21.030Z,93408.28
2023-03-08T03:56:48.813Z,93399.75
2023-03-08T03:59:17.174Z,93390.38
2023-03-08T04:01:44.568Z,93395.38
2023-03-08T04:04:21.674Z,93395.16
2023-03-08T04:06:49.249Z,93391.50
2023-03-08T04:09:19.938Z,93396.47
2023-03-08T04:11:54.217Z,93397.91
2023-03-08T04:14:22.493Z,93389.38
2023-03-08T04:16:51.169Z,93374.69
2023-03-08T04:19:26.235Z,93381.25
2023-03-08T04:21:56.160Z,93385.53
2023-03-08T04:24:26.345Z,93392.00
2023-03-08T04:26:57.398Z,93384.47
2023-03-08T04:29:24.271Z,93381.91
2023-03-08T04:31:51.287Z,93383.81
2023-03-08T04:34:19.881Z,93372.41
2023-03-08T04:36:49.456Z,93366.97
2023-03-08T04:39:16.300Z,93354.72
2023-03-08T04:41:43.444Z,93361.34
2023-03-08T04:44:30.446Z,93359.34
2023-03-08T04:46:57.522Z,93351.97
2023-03-08T04:49:31.616Z,93359.22
2023-03-08T04:52:02.001Z,93348.66
2023-03-08T04:54:29.948Z,93338.50
2023-03-08T04:57:02.366Z,93339.28
2023-03-08T04:59:30.455Z,93332.31
2023-03-08T05:02:00.332Z,93334.22
2023-03-08T05:04:29.091Z,93321.47
2023-03-08T05:06:55.793Z,93316.16
2023-03-08T05:09:25.566Z,93327.63
2023-03-08T05:11:53.387Z,93325.63
2023-03-08T05:14:21.842Z,93318.34
2023-03-08T05:16:49.565Z,93314.06
2023-03-08T05:19:16.663Z,93319.50
2023-03-08T05:21:48.587Z,93298.84
2023-03-08T05:24:15.425Z,93302.31
2023-03-08T05:26:43.031Z,93287.53
2023-03-08T05:29:11.677Z,93295.50
2023-03-08T05:31:40.104Z,93284.97
2023-03-08T05:34:11.370Z,93286.19
2023-03-08T05:36:42.921Z,93277.78
2023-03-08T05:39:10.949Z,93279.78
2023-03-08T05:41:44.325Z,93285.63
2023-03-08T05:44:13.324Z,93285.38
2023-03-08T05:46:41.096Z,93265.41
2023-03-08T05:49:10.470Z,93262.59
2023-03-08T05:51:38.254Z,93272.00
2023-03-08T05:54:05.813Z,93276.28
2023-03-08T05:56:34.254Z,93269.47
2023-03-08T05:59:28.346Z,93254.00
2023-03-08T06:01:59.740Z,93258.50
2023-03-08T06:04:37.540Z,93255.22
2023-03-08T06:07:04.571Z,93250.56
2023-03-08T06:09:38.543Z,93256.91
2023-03-08T06:12:07.423Z,93252.03
2023-03-08T06:14:34.404Z,93242.81
2023-03-08T06:17:01.872Z,93237.69
2023-03-08T06:19:31.721Z,93251.91
2023-03-08T06:21:58.616Z,93227.25
2023-03-08T06:24:26.726Z,93221.97
2023-03-08T06:26:55.668Z,93209.03
2023-03-08T06:29:23.384Z,93224.28
2023-03-08T06:31:50.470Z,93224.06
2023-03-08T06:34:17.977Z,93233.09
2023-03-08T06:36:45.916Z,93232.25
2023-03-08T06:39:13.900Z,93238.72
2023-03-08T06:41:40.987Z,93223.00
2023-03-08T06:44:08.049Z,93260.44
2023-03-08T06:46:34.766Z,93250.75
2023-03-08T06:49:01.779Z,93256.31
2023-03-08T06:51:30.075Z,93244.03
2023-03-08T06:53:57.080Z,93255.41
2023-03-08T06:56:28.833Z,93270.34
2023-03-08T06:58:55.917Z,93242.31
2023-03-08T07:01:22.805Z,93243.88
2023-03-08T07:03:50.266Z,93263.28
2023-03-08T07:06:17.372Z,93263.13
2023-03-08T07:08:44.092Z,93248.47
2023-03-08T07:11:11.065Z,93246.09
2023-03-08T07:13:38.798Z,93263.47
2023-03-08T07:16:10.175Z,93269.66
2023-03-08T07:18:36.965Z,93264.78
2023-03-08T07:21:04.131Z,93265.88
2023-03-08T07:23:31.033Z,93274.09
2023-03-08T07:25:58.196Z,93285.34
2023-03-08T07:28:25.780Z,93288.69
2023-03-08T07:30:53.281Z,93288.28
2023-03-08T07:33:21.380Z,93273.69
2023-03-08T07:35:48.640Z,93267.34
2023-03-08T07:38:16.662Z,93266.47
2023-03-08T07:40:44.436Z,93259.69
2023-03-08T07:43:11.782Z,93267.69
2023-03-08T07:45:53.048Z,93239.94
2023-03-08T07:48:20.024Z,93271.97
2023-03-08T07:50:46.758Z,93271.25
2023-03-08T07:53:14.587Z,93274.22
2023-03-08T07:55:41.339Z,93255.91
2023-03-08T07:58:08.426Z,93249.16
2023-03-08T08:00:35.154Z,93278.53
2023-03-08T08:03:02.019Z,93276.56
2023-03-08T08:05:29.744Z,93265.06
2023-03-08T08:07:56.475Z,93249.28
2023-03-08T08:10:23.559Z,93260.09
2023-03-08T08:12:50.314Z,93235.75
2023-03-08T08:15:17.460Z,93235.91
2023-03-08T08:17:44.805Z,93246.63
2023-03-08T08:20:12.038Z,93242.78
2023-03-08T08:22:38.989Z,93242.03
2023-03-08T08:25:06.958Z,93217.81
2023-03-08T08:27:34.039Z,93186.25
2023-03-08T08:30:01.555Z,93190.00
2023-03-08T08:32:28.938Z,93209.56
2023-03-08T08:34:56.267Z,93206.50
2023-03-08T08:37:23.083Z,93190.31
2023-03-08T08:39:49.832Z,93184.56
2023-03-08T08:42:16.797Z,93180.19
2023-03-08T08:44:45.088Z,93149.31
2023-03-08T08:47:11.889Z,93145.44
2023-03-08T08:49:39.363Z,93139.69
2023-03-08T08:52:06.257Z,93139.88
2023-03-08T08:54:34.273Z,93125.81
2023-03-08T08:57:01.447Z,93134.34
2023-03-08T08:59:28.738Z,93139.59
2023-03-08T09:01:55.556Z,93145.03
2023-03-08T09:04:22.948Z,93134.88
2023-03-08T09:06:50.116Z,93120.03
2023-03-08T09:09:18.346Z,93108.03
2023-03-08T09:11:54.999Z,93107.63
2023-03-08T09:14:22.544Z,93104.00
2023-03-08T09:16:49.572Z,93108.25
2023-03-08T09:19:17.044Z,93104.88
2023-03-08T09:21:44.014Z,93095.84
2023-03-08T09:24:11.517Z,93084.16
2023-03-08T09:26:38.364Z,93067.56
2023-03-08T09:29:07.277Z,93063.50
2023-03-08T09:31:36.420Z,93073.94
2023-03-08T09:34:05.324Z,93062.59
2023-03-08T09:36:32.069Z,93052.47
2023-03-08T09:38:59.446Z,93034.28
2023-03-08T09:42:00.210Z,93040.38
2023-03-08T09:44:30.916Z,93045.72
2023-03-08T09:47:06.076Z,93039.59
2023-03-08T09:49:34.413Z,93030.88
2023-03-08T09:52:30.716Z,93021.94
2023-03-08T09:55:00.829Z,93033.84
2023-03-08T09:57:34.637Z,92996.56
2023-03-08T10:00:11.987Z,92992.09
2023-03-08T10:03:07.465Z,92969.09
2023-03-08T10:05:40.970Z,92964.53
2023-03-08T10:08:17.629Z,92976.47
2023-03-08T10:10:56.487Z,92991.28
2023-03-08T10:13:28.989Z,92991.41
2023-03-08T10:16:32.436Z,93005.28
2023-03-08T10:19:17.797Z,92987.56
2023-03-08T10:21:47.464Z,93002.13
2023-03-08T10:24:34.717Z,93014.09
2023-03-08T10:27:16.130Z,92993.16
2023-03-08T10:29:51.880Z,92997.00
2023-03-08T10:32:18.745Z,93010.50
2023-03-08T10:34:46.169Z,92999.84
2023-03-08T10:37:13.115Z,92986.13
2023-03-08T10:39:53.446Z,93025.03
2023-03-08T10:42:27.362Z,93005.47
2023-03-08T10:45:00.047Z,92979.13
2023-03-08T10:47:32.559Z,92979.91
2023-03-08T10:50:21.027Z,93016.88
2023-03-08T10:52:50.855Z,93035.97
2023-03-08T10:55:21.467Z,93045.41
2023-03-08T10:57:50.974Z,93059.81
2023-03-08T11:00:21.025Z,93068.78
2023-03-08T11:02:48.465Z,93087.06
2023-03-08T11:05:18.637Z,93093.41
2023-03-08T11:07:57.701Z,93076.28
2023-03-08T11:10:30.305Z,93078.78
2023-03-08T11:13:21.285Z,93070.66
2023-03-08T11:15:56.479Z,93061.69
2023-03-08T11:18:44.187Z,93076.19
2023-03-08T11:21:23.467Z,93066.41
2023-03-08T11:24:14.379Z,93047.94
2023-03-08T11:27:05.897Z,93062.81
2023-03-08T11:29:52.534Z,93069.50
2023-03-08T11:32:37.682Z,93054.75
2023-03-08T11:35:41.039Z,93055.94
2023-03-08T11:38:26.998Z,93031.47
2023-03-08T11:41:21.255Z,93060.72
2023-03-08T11:43:54.076Z,93052.38
2023-03-08T11:46:47.948Z,93027.53
2023-03-08T11:49:18.290Z,93032.09
2023-03-08T11:52:09.269Z,93039.59
2023-03-08T11:55:20.538Z,93021.66
2023-03-08T11:57:54.447Z,92990.09
2023-03-08T12:00:53.497Z,92994.78
2023-03-08T12:03:24.345Z,92976.13
2023-03-08T12:05:59.080Z,92967.16
2023-03-08T12:08:43.743Z,92966.19
2023-03-08T12:11:27.273Z,92951.53
2023-03-08T12:14:03.809Z,92937.66
2023-03-08T12:16:48.826Z,92923.16
2023-03-08T12:19:41.157Z,92931.47
2023-03-08T12:22:39.186Z,92915.75
2023-03-08T12:25:26.731Z,92908.25
2023-03-08T12:28:11.616Z,92922.69
2023-03-08T12:31:26.644Z,92908.56
2023-03-08T12:33:55.027Z,92893.09
2023-03-08T12:36:22.727Z,92901.16
2023-03-08T12:38:56.719Z,92921.19
2023-03-08T12:41:33.734Z,92921.78
2023-03-08T12:44:05.523Z,92927.28
2023-03-08T12:47:02.792Z,92912.22
2023-03-08T12:49:36.713Z,92921.53
2023-03-08T12:52:26.576Z,92936.06
2023-03-08T12:55:19.073Z,92917.59
2023-03-08T12:57:55.641Z,92920.22
2023-03-08T13:00:35.609Z,92924.22
2023-03-08T13:03:14.624Z,92933.28
2023-03-08T13:05:45.662Z,92936.53
2023-03-08T13:08:12.925Z,92945.16
2023-03-08T13:10:49.204Z,92942.19
2023-03-08T13:13:51.343Z,92936.53
2023-03-08T13:16:30.712Z,92958.50
2023-03-08T13:19:21.681Z,92947.25
2023-03-08T13:22:03.240Z,92947.56
2023-03-08T13:24:46.859Z,92954.66
2023-03-08T13:27:48.244Z,92949.63
2023-03-08T13:30:24.530Z,92942.25
2023-03-08T13:32:52.382Z,92948.03
2023-03-08T13:35:20.210Z,92956.13
2023-03-08T13:37:59.895Z,92955.22
2023-03-08T13:40:28.653Z,92965.69
2023-03-08T13:43:08.507Z,92980.63
2023-03-08T13:45:35.692Z,92992.34
2023-03-08T13:48:08.826Z,92989.81
2023-03-08T13:50:38.884Z,92983.81
2023-03-08T13:53:10.940Z,92975.38
2023-03-08T13:55:45.353Z,92985.31
2023-03-08T13:58:19.441Z,92961.53
2023-03-08T14:00:46.394Z,92958.22
2023-03-08T14:03:20.652Z,92952.78
2023-03-08T14:05:48.537Z,92964.78
2023-03-08T14:08:23.292Z,92943.13
2023-03-08T14:11:01.218Z,92966.41
2023-03-08T14:13:30.158Z,92939.56
2023-03-08T14:16:00.256Z,92932.31
2023-03-08T14:18:33.776Z,92928.09
2023-03-08T14:21:02.378Z,92907.28
2023-03-08T14:23:29.484Z,92908.41
2023-03-08T14:25:59.496Z,92907.75
2023-03-08T14:29:03.781Z,92876.06
2023-03-08T14:31:31.140Z,92895.69
2023-03-08T14:34:01.613Z,92896.47
2023-03-08T14:36:31.543Z,92892.47
2023-03-08T14:39:02.709Z,92883.38
2023-03-08T14:41:32.721Z,92893.50
2023-03-08T14:44:00.530Z,92891.44
2023-03-08T14:46:28.769Z,92880.09
2023-03-08T14:49:01.819Z,92877.78
2023-03-08T14:51:37.903Z,92870.41
2023-03-08T14:54:20.504Z,92889.25
2023-03-08T14:56:49.039Z,92864.22
2023-03-08T14:59:26.875Z,92871.78
2023-03-08T15:01:55.142Z,92877.84
2023-03-08T15:04:24.812Z,92886.09
2023-03-08T15:06:53.965Z,92871.06
2023-03-08T15:09:22.231Z,92863.47
2023-03-08T15:11:52.479Z,92877.66
2023-03-08T15:14:19.293Z,92861.16
2023-03-08T15:16:46.295Z,92865.53
2023-03-08T15:19:14.213Z,92859.94
2023-03-08T15:21:41.414Z,92846.50
2023-03-08T15:24:15.058Z,92832.09
2023-03-08T15:26:41.949Z,92824.78
2023-03-08T15:29:23.793Z,92832.34
2023-03-08T15:31:51.296Z,92826.47
2023-03-08T15:34:18.393Z,92831.47
2023-03-08T15:36:47.275Z,92833.44
2023-03-08T15:39:15.288Z,92828.47
2023-03-08T15:41:42.053Z,92822.38
2023-03-08T15:44:09.664Z,92823.72
2023-03-08T15:46:36.520Z,92817.44
2023-03-08T15:49:05.126Z,92823.38
2023-03-08T15:51:35.789Z,92814.06
2023-03-08T15:54:05.670Z,92813.34
2023-03-08T15:56:32.575Z,92811.66
2023-03-08T15:58:59.890Z,92812.59
2023-03-08T16:01:27.316Z,92825.19
2023-03-08T16:03:56.458Z,92809.25
2023-03-08T16:06:24.230Z,92816.56
2023-03-08T16:08:51.378Z,92806.06
2023-03-08T16:11:22.511Z,92823.34
2023-03-08T16:13:52.198Z,92819.22
2023-03-08T16:16:21.206Z,92800.09
2023-03-08T16:18:49.077Z,92799.28
2023-03-08T16:21:17.057Z,92799.38
2023-03-08T16:23:44.032Z,92778.16
2023-03-08T16:26:17.399Z,92782.69
2023-03-08T16:28:46.842Z,92796.50
2023-03-08T16:31:15.110Z,92807.31
2023-03-08T16:33:42.224Z,92799.06
2023-03-08T16:36:09.281Z,92798.41
2023-03-08T16:38:37.077Z,92776.00
2023-03-08T16:41:14.112Z,92772.88
2023-03-08T16:43:49.784Z,92785.88
2023-03-08T16:46:21.862Z,92786.59
2023-03-08T16:48:51.367Z,92786.50
2023-03-08T16:51:20.717Z,92770.19
2023-03-08T16:53:49.101Z,92771.88
2023-03-08T16:56:20.800Z,92798.38
2023-03-08T16:58:48.143Z,92778.28
2023-03-08T17:01:17.045Z,92782.13
2023-03-08T17:03:44.658Z,92784.78
2023-03-08T17:06:15.850Z,92782.41
2023-03-08T17:08:43.138Z,92774.44
2023-03-08T17:11:25.046Z,92783.44
2023-03-08T17:13:55.700Z,92763.63
2023-03-08T17:16:26.964Z,92754.38
2023-03-08T17:18:54.639Z,92763.19
2023-03-08T17:21:23.745Z,92778.78
2023-03-08T17:23:52.141Z,92768.78
2023-03-08T17:26:22.394Z,92768.38
2023-03-08T17:28:50.817Z,92737.44
2023-03-08T17:31:21.369Z,92745.91
2023-03-08T17:33:49.070Z,92752.06
2023-03-08T17:36:16.743Z,92765.72
2023-03-08T17:38:43.706Z,92773.72
2023-03-08T17:41:15.191Z,92765.47
2023-03-08T17:43:42.201Z,92761.66
2023-03-08T17:46:16.725Z,92773.00
2023-03-08T17:48:44.275Z,92755.47
2023-03-08T17:51:14.232Z,92762.47
2023-03-08T17:53:42.236Z,92776.69
2023-03-08T17:56:11.489Z,92773.19
2023-03-08T17:58:38.326Z,92771.31
2023-03-08T18:01:31.864Z,92793.31
2023-03-08T18:03:59.119Z,92797.13
2023-03-08T18:06:34.923Z,92795.47
2023-03-08T18:09:06.323Z,92812.25
2023-03-08T18:11:37.960Z,92810.06
2023-03-08T18:14:06.773Z,92813.63
2023-03-08T18:16:34.713Z,92789.50
2023-03-08T18:19:02.554Z,92782.81
2023-03-08T18:21:32.943Z,92800.28
2023-03-08T18:24:00.421Z,92779.41
2023-03-08T18:26:28.002Z,92776.66
2023-03-08T18:28:54.875Z,92811.78
2023-03-08T18:31:26.108Z,92794.88
2023-03-08T18:33:55.006Z,92795.25
2023-03-08T18:36:23.414Z,92796.69
2023-03-08T18:38:51.734Z,92785.97
2023-03-08T18:41:23.245Z,92782.88
2023-03-08T18:43:51.928Z,92794.44
2023-03-08T18:46:18.975Z,92807.41
2023-03-08T18:48:52.683Z,92795.09
2023-03-08T18:51:19.635Z,92797.88
2023-03-08T18:53:47.117Z,92785.56
2023-03-08T18:56:13.880Z,92806.72
2023-03-08T18:58:40.792Z,92806.78
2023-03-08T19:01:13.174Z,92791.31
2023-03-08T19:03:41.193Z,92792.50
2023-03-08T19:06:09.785Z,92843.47
2023-03-08T19:08:38.850Z,92836.66
2023-03-08T19:11:13.428Z,92819.41
2023-03-08T19:13:40.882Z,92837.16
2023-03-08T19:16:29.496Z,92819.06
2023-03-08T19:18:59.217Z,92847.09
2023-03-08T19:21:32.376Z,92832.97
2023-03-08T19:23:59.856Z,92826.72
2023-03-08T19:26:39.776Z,92837.31
2023-03-08T19:29:11.419Z,92856.03
2023-03-08T19:31:43.443Z,92851.78
2023-03-08T19:34:11.564Z,92839.84
2023-03-08T19:36:39.660Z,92860.69
2023-03-08T19:39:12.254Z,92856.72
2023-03-08T19:41:39.200Z,92840.97
2023-03-08T19:44:08.524Z,92877.50
2023-03-08T19:46:39.301Z,92844.00
2023-03-08T19:49:08.699Z,92875.41
2023-03-08T19:51:36.237Z,92892.28
2023-03-08T19:54:03.368Z,92913.53
2023-03-08T19:56:30.148Z,92856.38
2023-03-08T19:58:57.201Z,92847.41
2023-03-08T20:01:24.184Z,92870.88
2023-03-08T20:03:51.632Z,92865.63
2023-03-08T20:06:31.369Z,92859.19
2023-03-08T20:09:00.703Z,92853.31
2023-03-08T20:11:27.745Z,92817.38
2023-03-08T20:13:54.615Z,92826.72
2023-03-08T20:16:22.872Z,92808.97
2023-03-08T20:18:49.884Z,92796.13
2023-03-08T20:21:18.305Z,92813.66
2023-03-08T20:23:46.841Z,92772.16
2023-03-08T20:26:14.111Z,92788.03
2023-03-08T20:28:40.907Z,92777.84
2023-03-08T20:31:16.758Z,92809.53
2023-03-08T20:33:44.583Z,92812.09
2023-03-08T20:36:11.558Z,92829.50
2023-03-08T20:38:39.197Z,92827.28
2023-03-08T20:41:09.816Z,92776.28
2023-03-08T20:43:36.854Z,92752.75
2023-03-08T20:46:09.990Z,92757.53
2023-03-08T20:48:39.068Z,92770.22
2023-03-08T20:51:07.965Z,92759.91
2023-03-08T20:53:35.634Z,92765.66
2023-03-08T20:56:14.194Z,92793.66
2023-03-08T20:58:41.885Z,92815.19
2023-03-08T21:01:20.078Z,92768.75
2023-03-08T21:03:47.253Z,92748.78
2023-03-08T21:06:17.209Z,92748.16
2023-03-08T21:08:43.909Z,92754.00
2023-03-08T21:11:10.680Z,92782.69
2023-03-08T21:13:38.278Z,92761.66
2023-03-08T21:16:08.295Z,92775.94
2023-03-08T21:18:35.135Z,92769.97
2023-03-08T21:21:01.902Z,92758.34
2023-03-08T21:23:28.758Z,92772.38
2023-03-08T21:25:59.988Z,92789.72
2023-03-08T21:28:27.252Z,92794.50
2023-03-08T21:30:57.046Z,92768.09
2023-03-08T21:33:24.661Z,92768.09
2023-03-08T21:35:52.663Z,92758.38
2023-03-08T21:38:20.222Z,92765.75
2023-03-08T21:40:46.943Z,92722.44
2023-03-08T21:43:14.041Z,92708.50
2023-03-08T21:45:42.095Z,92709.03
2023-03-08T21:48:10.256Z,92702.34
2023-03-08T21:50:41.045Z,92712.25
2023-03-08T21:53:08.749Z,92685.53
2023-03-08T21:55:39.736Z,92686.25
2023-03-08T21:58:08.720Z,92694.63
2023-03-08T22:00:35.600Z,92705.63
2023-03-08T22:03:02.495Z,92710.69
2023-03-08T22:05:30.485Z,92715.84
2023-03-08T22:07:57.480Z,92743.97
2023-03-08T22:10:24.627Z,92720.28
2023-03-08T22:12:51.404Z,92693.97
2023-03-08T22:15:18.619Z,92667.81
2023-03-08T22:17:45.366Z,92705.31
2023-03-08T22:20:12.780Z,92698.03
2023-03-08T22:22:40.565Z,92699.22
2023-03-08T22:25:09.098Z,92679.66
2023-03-08T22:27:35.956Z,92666.66
2023-03-08T22:30:04.104Z,92708.50
2023-03-08T22:32:30.985Z,92673.53
2023-03-08T22:34:57.835Z,92661.25
2023-03-08T22:37:25.122Z,92665.66
2023-03-08T22:39:52.301Z,92668.59
2023-03-08T22:42:19.499Z,92657.78
2023-03-08T22:44:46.271Z,92630.31
2023-03-08T22:47:13.054Z,92647.31
2023-03-08T22:49:40.321Z,92653.16
2023-03-08T22:52:08.397Z,92644.38
2023-03-08T22:54:36.528Z,92630.34
2023-03-08T22:57:03.789Z,92662.03
2023-03-08T22:59:30.542Z,92650.91
2023-03-08T23:01:57.381Z,92656.25
2023-03-08T23:04:24.560Z,92679.78
2023-03-08T23:06:51.298Z,92681.56
2023-03-08T23:09:18.641Z,92673.19
2023-03-08T23:11:45.809Z,92669.97
2023-03-08T23:14:13.025Z,92671.09
2023-03-08T23:16:42.232Z,92660.88
2023-03-08T23:19:12.621Z,92661.28
2023-03-08T23:21:39.728Z,92666.16
2023-03-08T23:24:07.444Z,92669.75
2023-03-08T23:26:34.902Z,92684.50
2023-03-08T23:29:03.602Z,92672.41
2023-03-08T23:31:33.572Z,92695.88
2023-03-08T23:34:01.386Z,92681.25
2023-03-08T23:36:31.106Z,92678.22
2023-03-08T23:38:58.026Z,92695.09
2023-03-08T23:41:25.809Z,92675.00
2023-03-08T23:43:57.901Z,92671.25
2023-03-08T23:46:26.310Z,92693.03
2023-03-08T23:48:55.714Z,92681.91
2023-03-08T23:51:23.931Z,92695.59
2023-03-08T23:53:52.723Z,92688.22
2023-03-08T23:56:30.069Z,92643.81
2023-03-08T23:58:59.396Z,92651.97
